Time;durP1;ratioP1;P1;durP2;ratioP2;P2;SDS_P1;SDS_P2;PMS_P1;PMS_P2;Temp;Humidity;BMP_temperature;BMP_pressure;BME280_temperature;BME280_humidity;BME280_pressure;Samples;Min_cycle;Max_cycle;Signal;HPM_P1;HPM_P2
2023/07/10 00:01:05;;;;;;;3.70;2.00;;;;;;;16.62;100.00;99416.20;105290;1253;59584;-59
2023/07/10 00:03:33;;;;;;;4.30;2.50;;;;;;;16.63;100.00;99411.54;105508;1253;71908;-59
2023/07/10 00:06:01;;;;;;;4.50;2.20;;;;;;;16.64;100.00;99409.29;105386;1257;66931;-58
2023/07/10 00:08:29;;;;;;;4.40;2.10;;;;;;;16.66;100.00;99404.81;105672;1253;74545;-68
2023/07/10 00:10:57;;;;;;;5.00;2.50;;;;;;;16.68;100.00;99401.74;105273;1253;61717;-58
2023/07/10 00:13:25;;;;;;;4.20;2.50;;;;;;;16.70;100.00;99404.13;105335;1252;60246;-58
2023/07/10 00:15:53;;;;;;;4.50;2.30;;;;;;;16.72;100.00;99399.65;105354;1256;73072;-58
2023/07/10 00:18:21;;;;;;;4.90;2.10;;;;;;;16.74;100.00;99401.85;105387;1253;67188;-59
2023/07/10 00:20:50;;;;;;;5.80;2.80;;;;;;;16.76;100.00;99404.67;105369;1255;71479;-60
2023/07/10 00:23:18;;;;;;;3.60;2.30;;;;;;;16.76;100.00;99401.77;105350;1253;61711;-58
2023/07/10 00:25:45;;;;;;;3.60;1.90;;;;;;;16.76;100.00;99399.73;105352;1253;59533;-59
2023/07/10 00:28:19;;;;;;;6.10;2.20;;;;;;;16.77;100.00;99403.57;105100;1254;73110;-60
2023/07/10 00:30:48;;;;;;;3.30;2.00;;;;;;;16.75;100.00;99405.04;105222;1253;65291;-59
2023/07/10 00:33:18;;;;;;;4.50;2.20;;;;;;;16.75;100.00;99401.88;105240;1257;73338;-68
2023/07/10 00:35:46;;;;;;;5.70;2.40;;;;;;;16.74;100.00;99398.89;105393;1253;60476;-59
2023/07/10 00:38:30;;;;;;;4.40;1.80;;;;;;;16.71;100.00;99393.37;105313;1253;60061;-64
2023/07/10 00:40:58;;;;;;;4.50;2.30;;;;;;;16.69;100.00;99395.45;105369;1253;71893;-70
2023/07/10 00:43:34;;;;;;;4.00;2.20;;;;;;;16.68;100.00;99393.96;105054;1259;66921;-61
2023/07/10 00:46:12;;;;;;;3.40;2.20;;;;;;;16.68;100.00;99395.23;105513;1258;72761;-72
2023/07/10 00:48:45;;;;;;;4.10;2.20;;;;;;;16.68;100.00;99397.44;105120;1260;60522;-70
2023/07/10 00:51:20;;;;;;;4.20;2.10;;;;;;;16.67;100.00;99398.16;105451;1253;60042;-61
2023/07/10 00:53:47;;;;;;;4.90;2.10;;;;;;;16.66;100.00;99394.77;105246;1253;74556;-57
2023/07/10 00:56:17;;;;;;;5.70;3.30;;;;;;;16.63;100.00;99400.48;105420;1253;65657;-59
2023/07/10 00:58:47;;;;;;;4.10;2.20;;;;;;;16.60;100.00;99397.85;105306;1253;73191;-61
2023/07/10 01:01:20;;;;;;;6.20;2.10;;;;;;;16.56;100.00;99398.23;105499;1257;60474;-58
2023/07/10 01:03:51;;;;;;;4.40;2.40;;;;;;;16.56;100.00;99399.70;105042;1253;59592;-61
2023/07/10 01:06:25;;;;;;;3.80;1.90;;;;;;;16.51;100.00;99393.17;105433;1253;73088;-71
2023/07/10 01:09:02;;;;;;;4.70;2.30;;;;;;;16.48;100.00;99396.86;105477;1253;67571;-60
2023/07/10 01:11:34;;;;;;;3.90;2.00;;;;;;;16.44;100.00;99398.91;105174;1258;73790;-59
2023/07/10 01:14:03;;;;;;;4.40;2.10;;;;;;;16.39;100.00;99402.57;105657;1253;61148;-70
2023/07/10 01:16:32;;;;;;;4.60;2.30;;;;;;;16.36;100.00;99402.58;105188;1252;60088;-59
2023/07/10 01:19:00;;;;;;;4.80;2.50;;;;;;;16.31;100.00;99402.05;105343;1253;72999;-67
2023/07/10 01:21:32;;;;;;;6.20;2.70;;;;;;;16.27;100.00;99401.03;105117;1253;67018;-59
2023/07/10 01:24:01;;;;;;;3.70;2.60;;;;;;;16.25;100.00;99402.10;105280;1253;71728;-69
2023/07/10 01:26:30;;;;;;;6.20;2.90;;;;;;;16.22;100.00;99403.27;105165;1253;62621;-59
2023/07/10 01:28:58;;;;;;;4.30;2.30;;;;;;;16.17;100.00;99405.10;105383;1257;59619;-58
2023/07/10 01:31:26;;;;;;;5.20;2.20;;;;;;;16.13;100.00;99409.66;105191;1258;73647;-59
2023/07/10 01:34:02;;;;;;;5.10;2.80;;;;;;;16.06;100.00;99404.68;105150;1258;66868;-69
2023/07/10 01:36:33;;;;;;;4.40;2.40;;;;;;;16.01;100.00;99403.73;105293;1253;72721;-58
2023/07/10 01:39:04;;;;;;;;;;;;;;;15.97;100.00;99405.58;105188;1257;60195;-59
2023/07/10 01:41:36;;;;;;;4.80;2.40;;;;;;;15.95;100.00;99405.48;105441;1253;60456;-59
2023/07/10 01:44:33;;;;;;;7.60;2.80;;;;;;;15.91;100.00;99408.84;105328;1255;74162;-61
2023/07/10 01:47:02;;;;;;;6.60;2.80;;;;;;;15.88;100.00;99408.33;105318;1256;65674;-59
2023/07/10 01:49:39;;;;;;;8.30;2.30;;;;;;;15.86;100.00;99412.44;105453;1258;71391;-70
2023/07/10 01:52:09;;;;;;;5.90;2.20;;;;;;;15.85;100.00;99421.95;105082;1253;61787;-60
2023/07/10 01:54:37;;;;;;;6.00;3.00;;;;;;;15.84;100.00;99424.30;105307;1257;59513;-59
2023/07/10 01:57:06;;;;;;;6.10;3.00;;;;;;;15.83;100.00;99424.16;105221;1257;71960;-62
2023/07/10 01:59:34;;;;;;;5.40;2.50;;;;;;;15.81;100.00;99427.50;105134;1258;67398;-60
2023/07/10 02:02:04;;;;;;;6.20;2.60;;;;;;;15.81;100.00;99424.35;105288;1253;72527;-59
2023/07/10 02:04:31;;;;;;;5.40;2.70;;;;;;;15.81;100.00;99426.02;105369;1257;60441;-59
2023/07/10 02:07:01;;;;;;;4.70;2.40;;;;;;;15.81;100.00;99425.60;105276;1252;60218;-60
2023/07/10 02:09:29;;;;;;;5.90;2.30;;;;;;;15.81;100.00;99425.92;105319;1257;73506;-60
2023/07/10 02:11:57;;;;;;;4.30;2.60;;;;;;;15.86;100.00;99425.84;105354;1257;67307;-60
2023/07/10 02:14:25;;;;;;;4.30;2.40;;;;;;;15.88;100.00;99422.98;105569;1253;73180;-72
2023/07/10 02:16:53;;;;;;;4.50;2.70;;;;;;;15.91;100.00;99427.08;105072;1258;59791;-60
2023/07/10 02:19:21;;;;;;;5.30;3.00;;;;;;;15.96;100.00;99430.52;105651;1253;60030;-62
2023/07/10 02:21:49;;;;;;;5.70;3.30;;;;;;;16.01;100.00;99434.04;105333;1255;73677;-60
2023/07/10 02:24:16;;;;;;;6.30;3.10;;;;;;;16.06;100.00;99438.58;105127;1258;65985;-59
2023/07/10 02:26:44;;;;;;;5.80;2.40;;;;;;;16.13;100.00;99442.58;105031;1253;72636;-58
2023/07/10 02:29:12;;;;;;;9.20;2.60;;;;;;;16.20;100.00;99444.16;105812;1258;61702;-59
2023/07/10 02:31:40;;;;;;;4.50;2.20;;;;;;;16.26;100.00;99442.63;105173;1253;60414;-60
2023/07/10 02:34:07;;;;;;;6.20;3.00;;;;;;;16.32;100.00;99441.39;105611;1258;72957;-69
2023/07/10 02:36:35;;;;;;;7.60;2.70;;;;;;;16.37;100.00;99443.84;105232;1253;67395;-60
2023/07/10 02:46:50;;;;;;;3.90;2.60;;;;;;;16.66;100.00;99448.09;102095;1290;599854;-59
2023/07/10 02:49:18;;;;;;;9.40;2.60;;;;;;;16.70;100.00;99451.98;104875;1269;59751;-59
2023/07/10 02:51:46;;;;;;;3.90;2.50;;;;;;;16.75;100.00;99451.77;104264;1268;59298;-59
2023/07/10 02:54:14;;;;;;;4.50;2.20;;;;;;;16.80;100.00;99453.30;104675;1271;72251;-58
2023/07/10 02:56:41;;;;;;;5.10;2.30;;;;;;;16.84;100.00;99447.94;104686;1268;67348;-58
2023/07/10 02:59:09;;;;;;;5.60;2.30;;;;;;;16.88;100.00;99447.29;104233;1269;72805;-69
2023/07/10 03:01:37;;;;;;;4.40;2.30;;;;;;;16.91;100.00;99447.98;104848;1263;225115;-59
2023/07/10 03:04:06;;;;;;;4.90;2.40;;;;;;;16.95;100.00;99450.14;105420;1253;60046;-58
2023/07/10 03:06:34;;;;;;;7.10;3.10;;;;;;;17.00;100.00;99443.98;105427;1256;72213;-58
2023/07/10 03:09:03;;;;;;;6.30;2.50;;;;;;;17.05;100.00;99440.52;105279;1256;65749;-68
2023/07/10 03:11:31;;;;;;;7.10;3.00;;;;;;;17.09;100.00;99435.13;105726;1256;72712;-63
2023/07/10 03:14:01;;;;;;;5.00;2.50;;;;;;;17.15;100.00;99440.27;105302;1258;61743;-60
2023/07/10 03:16:29;;;;;;;5.10;2.40;;;;;;;17.22;100.00;99441.50;105264;1257;59595;-60
2023/07/10 03:18:57;;;;;;;3.90;2.30;;;;;;;17.30;100.00;99442.27;105397;1251;72139;-60
2023/07/10 03:21:25;;;;;;;4.50;2.80;;;;;;;17.39;100.00;99443.20;105449;1257;65675;-71
2023/07/10 03:23:53;;;;;;;4.50;2.30;;;;;;;17.48;100.00;99442.77;105427;1257;71451;-61
2023/07/10 03:26:21;;;;;;;7.80;2.80;;;;;;;17.56;100.00;99444.39;105452;1257;60605;-59
2023/07/10 03:29:00;;;;;;;5.30;2.60;;;;;;;17.64;100.00;99446.84;109338;1250;58746;-60
2023/07/10 03:31:28;;;;;;;4.70;2.70;;;;;;;17.72;100.00;99450.91;109168;1255;73598;-59
2023/07/10 03:33:56;;;;;;;4.40;2.30;;;;;;;17.80;100.00;99453.09;109391;1251;65499;-59
2023/07/10 03:36:23;;;;;;;5.60;2.40;;;;;;;17.85;100.00;99454.98;109369;1251;72740;-61
2023/07/10 03:38:51;;;;;;;7.60;3.00;;;;;;;17.91;100.00;99450.91;109353;1251;61680;-59
2023/07/10 03:41:19;;;;;;;5.20;2.60;;;;;;;17.99;100.00;99451.98;109264;1250;57974;-63
2023/07/10 03:43:48;;;;;;;7.50;2.50;;;;;;;18.07;100.00;99452.46;109391;1251;73770;-59
2023/07/10 03:46:16;;;;;;;3.90;2.60;;;;;;;18.15;100.00;99448.27;109363;1251;66867;-61
2023/07/10 03:48:44;;;;;;;6.60;2.60;;;;;;;18.21;100.00;99447.58;109354;1251;71765;-59
2023/07/10 03:51:11;;;;;;;16.40;2.90;;;;;;;18.30;100.00;99442.47;109370;1251;61774;-65
2023/07/10 03:53:39;;;;;;;4.90;2.50;;;;;;;18.40;100.00;99437.09;109325;1251;60532;-60
2023/07/10 03:56:07;;;;;;;5.50;2.50;;;;;;;18.51;100.00;99435.84;109374;1253;73078;-59
2023/07/10 03:58:38;;;;;;;3.00;2.00;;;;;;;18.61;100.00;99434.16;109384;1250;66811;-59
2023/07/10 04:01:06;;;;;;;6.00;2.60;;;;;;;18.73;100.00;99432.19;109229;1253;72437;-59
2023/07/10 04:03:35;;;;;;;4.00;2.20;;;;;;;18.87;100.00;99434.36;109265;1250;61733;-70
2023/07/10 04:06:03;;;;;;;4.20;2.60;;;;;;;19.05;100.00;99434.59;109395;1251;58816;-59
2023/07/10 04:08:36;;;;;;;6.30;2.40;;;;;;;19.21;100.00;99431.64;109432;1250;73106;-59
2023/07/10 04:11:06;;;;;;;4.90;2.20;;;;;;;19.40;100.00;99426.31;109424;1250;67204;-62
2023/07/10 04:13:33;;;;;;;7.70;2.50;;;;;;;19.59;100.00;99422.60;109270;1251;72725;-59
2023/07/10 04:16:05;;;;;;;5.00;2.30;;;;;;;19.75;100.00;99420.46;109365;1251;61651;-62
2023/07/10 04:18:34;;;;;;;4.30;2.40;;;;;;;19.95;100.00;99416.02;109395;1251;59152;-59
2023/07/10 04:21:04;;;;;;;4.10;2.70;;;;;;;20.21;100.00;99411.60;109192;1250;73166;-61
2023/07/10 04:23:32;;;;;;;5.10;2.50;;;;;;;20.41;100.00;99409.09;109314;1250;65855;-60
2023/07/10 04:26:00;;;;;;;6.20;2.30;;;;;;;20.60;100.00;99410.01;109411;1253;72726;-59
2023/07/10 04:28:28;;;;;;;3.10;1.90;;;;;;;20.81;100.00;99401.58;109353;1251;58845;-61
2023/07/10 04:30:56;;;;;;;5.70;2.70;;;;;;;21.02;100.00;99397.39;109362;1251;58828;-61
2023/07/10 04:33:25;;;;;;;3.80;2.50;;;;;;;21.26;100.00;99395.32;109286;1251;73151;-65
2023/07/10 04:35:54;;;;;;;3.80;2.20;;;;;;;21.58;100.00;99398.79;109316;1250;65944;-60
2023/07/10 04:38:23;;;;;;;4.20;2.50;;;;;;;21.91;100.00;99392.70;109340;1251;71791;-62
2023/07/10 04:40:55;;;;;;;4.50;2.50;;;;;;;22.25;100.00;99384.45;109205;1251;60110;-63
2023/07/10 04:43:27;;;;;;;4.10;2.30;;;;;;;22.61;100.00;99380.07;109136;1251;60667;-67
2023/07/10 04:45:55;;;;;;;3.90;2.20;;;;;;;22.93;100.00;99380.33;109125;1251;72030;-61
2023/07/10 04:48:23;;;;;;;4.30;2.30;;;;;;;23.25;100.00;99374.15;109375;1250;67019;-62
2023/07/10 04:50:52;;;;;;;3.90;2.30;;;;;;;23.57;100.00;99369.09;109344;1251;72384;-69
2023/07/10 04:53:20;;;;;;;5.90;2.70;;;;;;;23.89;100.00;99360.17;109297;1251;60824;-70
2023/07/10 04:55:48;;;;;;;3.50;1.90;;;;;;;24.15;100.00;99360.19;109339;1250;60348;-61
2023/07/10 04:58:16;;;;;;;4.10;2.00;;;;;;;24.29;100.00;99360.64;109271;1251;73126;-62
2023/07/10 05:00:44;;;;;;;3.60;2.30;;;;;;;24.33;100.00;99363.28;109369;1251;66948;-64
2023/07/10 05:03:12;;;;;;;5.30;2.10;;;;;;;24.34;100.00;99363.45;109193;1253;73313;-67
2023/07/10 05:05:39;;;;;;;3.60;1.70;;;;;;;24.46;100.00;99364.98;109261;1254;58896;-62
2023/07/10 05:08:07;;;;;;;3.80;2.30;;;;;;;24.94;100.00;99360.02;109358;1250;60140;-64
2023/07/10 05:10:34;;;;;;;3.50;1.80;;;;;;;25.53;100.00;99361.42;109360;1250;73038;-62
2023/07/10 05:13:02;;;;;;;2.80;1.70;;;;;;;25.90;100.00;99366.14;109280;1251;67913;-72
2023/07/10 05:15:30;;;;;;;6.30;2.30;;;;;;;26.02;100.00;99364.67;109294;1250;73317;-70
2023/07/10 05:17:57;;;;;;;3.10;1.90;;;;;;;26.08;100.00;99363.60;109238;1254;60118;-64
2023/07/10 05:20:25;;;;;;;4.60;1.70;;;;;;;26.06;100.00;99357.27;109235;1251;58897;-63
2023/07/10 05:22:52;;;;;;;3.30;2.10;;;;;;;25.93;100.00;99363.83;109279;1251;73134;-62
2023/07/10 05:25:20;;;;;;;4.00;2.10;;;;;;;26.04;100.00;99363.60;109204;1251;67538;-72
2023/07/10 05:27:47;;;;;;;6.40;2.30;;;;;;;26.31;100.00;99365.21;109156;1251;72732;-63
2023/07/10 05:30:15;;;;;;;4.70;1.90;;;;;;;26.43;100.00;99361.05;109222;1250;60077;-62
2023/07/10 05:32:43;;;;;;;4.20;2.10;;;;;;;26.32;100.00;99365.36;109286;1251;60118;-62
2023/07/10 05:35:11;;;;;;;3.10;1.90;;;;;;;26.25;100.00;99364.70;109308;1251;72178;-65
2023/07/10 05:37:38;;;;;;;3.60;2.00;;;;;;;26.21;100.00;99366.66;109040;1251;66940;-63
2023/07/10 05:40:06;;;;;;;3.80;2.30;;;;;;;26.21;100.00;99371.13;109361;1250;72157;-62
2023/07/10 05:42:34;;;;;;;4.30;2.50;;;;;;;26.42;100.00;99371.77;109338;1250;58811;-62
2023/07/10 05:45:02;;;;;;;3.30;1.90;;;;;;;26.68;100.00;99375.08;109422;1250;59999;-62
2023/07/10 05:47:30;;;;;;;4.30;2.20;;;;;;;26.93;100.00;99377.50;109091;1251;73030;-72
2023/07/10 05:49:57;;;;;;;3.60;2.30;;;;;;;27.14;100.00;99380.16;109351;1250;67539;-62
2023/07/10 05:52:25;;;;;;;3.30;2.10;;;;;;;27.18;100.00;99380.70;109306;1250;72884;-62
2023/07/10 05:54:52;;;;;;;2.90;1.80;;;;;;;27.13;100.00;99384.16;109288;1252;58860;-63
2023/07/10 05:57:20;;;;;;;5.50;2.30;;;;;;;27.07;100.00;99383.63;109287;1250;58828;-70
2023/07/10 05:59:48;;;;;;;3.50;1.80;;;;;;;27.01;100.00;99385.07;109333;1250;71803;-63
2023/07/10 06:02:15;;;;;;;5.00;2.20;;;;;;;27.13;100.00;99379.23;109359;1250;66272;-62
2023/07/10 06:04:43;;;;;;;5.10;1.80;;;;;;;27.60;100.00;99373.80;109314;1250;72820;-62
2023/07/10 06:07:10;;;;;;;3.80;2.10;;;;;;;28.15;100.00;99375.29;109316;1251;60492;-70
2023/07/10 06:09:38;;;;;;;2.70;1.70;;;;;;;28.56;100.00;99375.05;109293;1252;58728;-63
2023/07/10 06:12:06;;;;;;;5.30;1.90;;;;;;;28.79;99.36;99372.11;109226;1251;73152;-64
2023/07/10 06:14:34;;;;;;;4.00;1.70;;;;;;;28.87;98.26;99371.89;109265;1251;67050;-63
2023/07/10 06:17:02;;;;;;;4.50;1.70;;;;;;;28.97;98.49;99377.48;109215;1253;71075;-67
2023/07/10 06:19:29;;;;;;;3.20;1.80;;;;;;;29.35;97.26;99378.39;109258;1252;60114;-62
2023/07/10 06:22:07;;;;;;;3.20;1.70;;;;;;;29.76;88.51;99373.39;109218;1251;60083;-62
2023/07/10 06:24:34;;;;;;;3.80;2.00;;;;;;;30.22;83.32;99373.23;109330;1253;73136;-61
2023/07/10 06:27:02;;;;;;;3.90;1.90;;;;;;;30.68;74.84;99366.27;109205;1252;66933;-64
2023/07/10 06:29:31;;;;;;;3.90;1.90;;;;;;;30.98;71.51;99368.48;109343;1250;63918;-64
2023/07/10 06:31:59;;;;;;;3.20;1.40;;;;;;;31.35;68.45;99370.29;109275;1250;57501;-63
2023/07/10 06:34:28;;;;;;;4.00;1.90;;;;;;;31.70;63.10;99368.77;109294;1250;60084;-61
2023/07/10 06:36:55;;;;;;;2.50;1.70;;;;;;;31.92;63.20;99370.73;109303;1251;73636;-61
2023/07/10 06:39:26;;;;;;;3.80;2.00;;;;;;;32.08;59.25;99369.59;109420;1250;58526;-62
2023/07/10 06:41:53;;;;;;;;;;;;;;;32.14;55.45;99369.83;109347;1252;63844;-64
2023/07/10 06:44:21;;;;;;;4.00;1.70;;;;;;;32.15;55.54;99370.16;109317;1250;57748;-62
2023/07/10 06:46:49;;;;;;;3.00;1.60;;;;;;;32.25;54.67;99368.98;109285;1251;58768;-65
2023/07/10 06:49:17;;;;;;;3.80;2.00;;;;;;;32.31;52.71;99365.19;109224;1251;64395;-62
2023/07/10 06:51:44;;;;;;;3.60;1.90;;;;;;;32.17;51.83;99367.25;109228;1251;58346;-62
2023/07/10 06:54:12;;;;;;;3.00;1.70;;;;;;;31.80;51.83;99363.50;109165;1251;73595;-64
2023/07/10 06:56:40;;;;;;;3.40;1.50;;;;;;;31.39;53.30;99369.42;109158;1251;58239;-61
2023/07/10 06:59:07;;;;;;;6.20;2.60;;;;;;;31.16;59.59;99367.38;109172;1251;58070;-64
2023/07/10 07:01:35;;;;;;;1.80;1.40;;;;;;;31.30;60.37;99360.02;109234;1251;73846;-64
2023/07/10 07:04:02;;;;;;;4.30;1.90;;;;;;;31.68;59.34;99355.88;109262;1251;58972;-68
2023/07/10 07:06:30;;;;;;;3.20;1.50;;;;;;;32.23;52.18;99353.47;109248;1250;72738;-63
2023/07/10 07:08:58;;;;;;;3.60;1.70;;;;;;;32.56;51.61;99356.23;109347;1250;58179;-64
2023/07/10 07:11:25;;;;;;;3.50;1.80;;;;;;;32.95;50.82;99353.84;109396;1250;58534;-65
2023/07/10 07:13:53;;;;;;;3.90;1.60;;;;;;;33.24;44.32;99356.71;109421;1250;63741;-63
2023/07/10 07:16:21;;;;;;;3.10;1.60;;;;;;;33.14;43.07;99348.59;109362;1250;58527;-69
2023/07/10 07:18:50;;;;;;;2.50;1.60;;;;;;;33.05;42.75;99352.41;109351;1250;63911;-68
2023/07/10 07:21:32;;;;;;;3.20;1.80;;;;;;;32.97;46.19;99351.25;109324;1250;58729;-64
2023/07/10 07:24:00;;;;;;;3.90;1.60;;;;;;;33.13;47.49;99349.33;109401;1250;58484;-64
2023/07/10 07:26:28;;;;;;;4.80;1.50;;;;;;;33.27;43.91;99344.27;109354;1250;64999;-64
2023/07/10 07:28:55;;;;;;;2.50;1.50;;;;;;;33.27;42.93;99346.59;109329;1250;58654;-69
2023/07/10 07:31:23;;;;;;;2.80;1.60;;;;;;;33.37;43.64;99347.16;109403;1250;63967;-64
2023/07/10 07:33:51;;;;;;;3.40;2.10;;;;;;;33.44;42.03;99345.67;109346;1250;58732;-64
2023/07/10 07:36:18;;;;;;;2.80;1.70;;;;;;;33.47;41.77;99349.61;109394;1250;58145;-68
2023/07/10 07:38:46;;;;;;;2.90;1.80;;;;;;;33.62;43.62;99346.80;109430;1250;65521;-64
2023/07/10 07:41:13;;;;;;;2.70;1.50;;;;;;;33.88;43.20;99344.66;109333;1250;59213;-65
2023/07/10 07:43:41;;;;;;;2.60;1.30;;;;;;;34.02;40.98;99339.67;109383;1250;63978;-65
2023/07/10 07:46:09;;;;;;;3.00;1.50;;;;;;;34.05;38.43;99340.50;109436;1252;58610;-64
2023/07/10 07:48:36;;;;;;;3.00;1.60;;;;;;;33.98;37.94;99341.61;109347;1250;58550;-65
2023/07/10 07:51:05;;;;;;;3.30;1.60;;;;;;;33.96;37.66;99337.69;109420;1250;64954;-65
2023/07/10 07:53:34;;;;;;;2.60;1.50;;;;;;;33.82;37.51;99336.54;109378;1250;58232;-63
2023/07/10 07:56:02;;;;;;;4.70;1.50;;;;;;;33.64;38.20;99334.23;109362;1250;62991;-63
2023/07/10 07:58:30;;;;;;;2.70;1.90;;;;;;;33.72;38.63;99332.07;109341;1250;58238;-65
2023/07/10 08:00:59;;;;;;;3.50;1.50;;;;;;;33.91;40.02;99331.45;109393;1251;58243;-66
2023/07/10 08:03:27;;;;;;;2.30;1.50;;;;;;;34.15;40.16;99328.90;109213;1251;64366;-62
2023/07/10 08:05:55;;;;;;;4.40;2.00;;;;;;;34.44;39.13;99326.08;109229;1251;58603;-62
2023/07/10 08:08:23;;;;;;;3.70;1.60;;;;;;;34.57;37.00;99325.49;109217;1251;63800;-62
2023/07/10 08:10:51;;;;;;;3.60;1.60;;;;;;;34.52;36.05;99321.32;109314;1250;58593;-65
2023/07/10 08:13:19;;;;;;;10.70;9.30;;;;;;;34.23;35.00;99317.82;109364;1250;58090;-62
2023/07/10 08:15:47;;;;;;;2.70;1.60;;;;;;;33.84;36.17;99318.66;109381;1250;64979;-61
2023/07/10 08:18:15;;;;;;;6.80;4.30;;;;;;;33.63;36.41;99322.56;109324;1250;58223;-61
2023/07/10 08:20:42;;;;;;;3.80;2.50;;;;;;;33.37;36.55;99318.38;109225;1253;62523;-63
2023/07/10 08:23:10;;;;;;;6.50;4.70;;;;;;;33.15;38.54;99315.66;109271;1252;58223;-63
2023/07/10 08:25:38;;;;;;;5.30;2.80;;;;;;;33.24;40.94;99319.85;109376;1251;58260;-63
2023/07/10 08:28:05;;;;;;;3.70;2.00;;;;;;;33.40;37.49;99311.16;109233;1250;73534;-63
2023/07/10 08:30:33;;;;;;;5.70;3.30;;;;;;;33.27;37.36;99318.43;109309;1250;58207;-62
2023/07/10 08:33:01;;;;;;;4.30;2.10;;;;;;;33.21;38.13;99317.85;109151;1253;62582;-62
2023/07/10 08:35:28;;;;;;;18.00;13.30;;;;;;;33.15;38.44;99319.75;109301;1253;58358;-61
2023/07/10 08:37:56;;;;;;;3.60;1.80;;;;;;;33.17;38.01;99314.31;109393;1250;58541;-62
2023/07/10 08:40:30;;;;;;;4.50;2.80;;;;;;;33.14;37.02;99311.63;109331;1251;65095;-61
2023/07/10 08:42:58;;;;;;;5.90;3.30;;;;;;;33.04;38.32;99312.76;108930;1251;58887;-60
2023/07/10 08:45:34;;;;;;;7.40;5.00;;;;;;;33.00;39.78;99310.80;109148;1251;63980;-61
2023/07/10 08:48:26;;;;;;;3.50;2.00;;;;;;;33.05;40.51;99308.30;109122;1251;58196;-63
2023/07/10 08:50:56;;;;;;;4.60;2.00;;;;;;;33.18;41.46;99305.15;109280;1250;60120;-62
2023/07/10 08:53:25;;;;;;;2.70;1.40;;;;;;;33.32;39.40;99307.32;109277;1251;65437;-62
2023/07/10 08:56:03;;;;;;;5.00;2.40;;;;;;;33.29;38.61;99305.35;109119;1251;58563;-64
2023/07/10 08:58:34;;;;;;;4.00;1.80;;;;;;;33.19;39.46;99302.45;109174;1251;63835;-63
2023/07/10 09:01:03;;;;;;;2.80;1.60;;;;;;;33.20;39.85;99302.24;109026;1253;58190;-62
2023/07/10 09:03:34;;;;;;;9.20;2.30;;;;;;;33.46;38.93;99302.89;108993;1251;58683;-62
2023/07/10 09:06:10;;;;;;;3.50;2.10;;;;;;;33.83;37.15;99299.17;109159;1255;63720;-63
2023/07/10 09:08:38;;;;;;;2.30;1.40;;;;;;;33.95;36.59;99295.50;109018;1251;58619;-61
2023/07/10 09:11:05;;;;;;;5.70;3.30;;;;;;;33.89;36.80;99299.42;109094;1251;63775;-60
2023/07/10 09:13:43;;;;;;;11.50;6.00;;;;;;;33.78;37.04;99301.42;109210;1251;58645;-60
2023/07/10 09:16:21;;;;;;;3.20;1.70;;;;;;;33.49;38.72;99300.92;109177;1251;58851;-63
2023/07/10 09:19:06;;;;;;;5.50;2.70;;;;;;;33.19;39.10;99309.40;109363;1252;63867;-61
2023/07/10 09:21:36;;;;;;;6.60;4.00;;;;;;;33.02;39.50;99304.15;109185;1251;58697;-61
2023/07/10 09:24:04;;;;;;;2.40;1.60;;;;;;;32.97;40.30;99309.06;109241;1253;72416;-61
2023/07/10 09:26:38;;;;;;;3.40;1.70;;;;;;;33.05;42.37;99310.30;109350;1251;58570;-62
2023/07/10 09:29:09;;;;;;;4.20;2.60;;;;;;;33.16;43.91;99306.51;109205;1251;58570;-62
2023/07/10 09:31:55;;;;;;;4.50;2.40;;;;;;;33.08;44.61;99312.90;109285;1256;63726;-60
2023/07/10 09:34:26;;;;;;;8.50;4.90;;;;;;;32.84;43.65;99312.87;109242;1250;58540;-61
2023/07/10 09:36:56;;;;;;;3.60;2.00;;;;;;;32.75;44.93;99308.83;109301;1250;62670;-61
2023/07/10 09:39:27;;;;;;;8.70;4.10;;;;;;;32.87;42.53;99311.46;109273;1250;60121;-62
2023/07/10 09:42:02;;;;;;;5.10;1.80;;;;;;;32.95;43.22;99316.27;109239;1250;59652;-62
2023/07/10 09:44:35;;;;;;;10.90;1.60;;;;;;;33.01;43.38;99315.00;109306;1250;63693;-63
2023/07/10 09:47:10;;;;;;;2.20;1.40;;;;;;;33.19;43.95;99317.96;109354;1250;58257;-66
2023/07/10 09:49:46;;;;;;;5.40;2.40;;;;;;;33.32;42.49;99319.27;109372;1250;62682;-64
2023/07/10 09:52:17;;;;;;;5.50;2.90;;;;;;;33.11;42.72;99321.53;109158;1250;58650;-63
2023/07/10 09:54:44;;;;;;;;;;;;;;;32.86;43.08;99320.17;109338;1250;58634;-63
2023/07/10 09:57:14;;;;;;;7.20;3.40;;;;;;;32.70;43.80;99314.20;109342;1252;65053;-63
2023/07/10 09:59:52;;;;;;;3.80;2.10;;;;;;;32.74;45.28;99315.14;109375;1250;58340;-63
2023/07/10 10:02:24;;;;;;;3.30;1.60;;;;;;;32.93;42.91;99312.54;109376;1251;62530;-64
2023/07/10 10:05:10;;;;;;;2.70;1.70;;;;;;;32.99;42.96;99315.51;109385;1250;58575;-62
2023/07/10 10:07:41;;;;;;;3.80;2.10;;;;;;;32.81;43.23;99317.98;109228;1251;58127;-63
2023/07/10 10:10:19;;;;;;;2.40;1.50;;;;;;;32.65;44.76;99317.50;109192;1251;72615;-65
2023/07/10 10:13:19;;;;;;;2.30;1.30;;;;;;;32.81;47.83;99314.27;109253;1250;67344;-64
2023/07/10 10:16:24;;;;;;;2.20;1.50;;;;;;;33.22;45.24;99316.45;109159;1250;63767;-63
2023/07/10 10:18:54;;;;;;;2.40;1.30;;;;;;;33.62;42.90;99315.05;109281;1250;58545;-64
2023/07/10 10:21:22;;;;;;;3.90;1.80;;;;;;;33.88;42.08;99305.13;109319;1250;58718;-62
2023/07/10 10:23:51;;;;;;;2.90;1.80;;;;;;;34.09;39.39;99305.94;109360;1250;65058;-63
2023/07/10 10:26:43;;;;;;;3.20;1.60;;;;;;;34.18;39.11;99299.73;109266;1253;58980;-63
2023/07/10 10:29:29;;;;;;;3.50;1.50;;;;;;;34.43;37.09;99304.48;109358;1250;73621;-62
2023/07/10 10:32:05;;;;;;;2.90;1.50;;;;;;;34.11;35.66;99302.40;109310;1250;58171;-65
2023/07/10 10:34:55;;;;;;;6.20;2.00;;;;;;;33.37;37.11;99309.09;109273;1250;58141;-62
2023/07/10 10:37:35;;;;;;;5.20;1.70;;;;;;;32.70;40.36;99307.48;109316;1250;65099;-62
2023/07/10 10:40:14;;;;;;;4.30;1.60;;;;;;;32.44;44.28;99307.12;109360;1250;66678;-62
2023/07/10 10:43:26;;;;;;;3.80;2.20;;;;;;;32.33;42.32;99305.67;109275;1250;73781;-62
2023/07/10 10:46:17;;;;;;;8.00;2.30;;;;;;;32.40;43.97;99305.39;109198;1250;58189;-64
2023/07/10 10:49:05;;;;;;;;;;;;;;;32.74;43.19;99298.31;109094;1250;60549;-62
2023/07/10 10:52:08;;;;;;;5.50;2.60;;;;;;;33.03;41.59;99298.77;109091;1250;65163;-64
2023/07/10 10:54:58;;;;;;;4.30;1.90;;;;;;;33.29;41.28;99306.52;109302;1250;58409;-62
2023/07/10 10:57:37;;;;;;;2.90;1.90;;;;;;;33.48;40.68;99307.25;109184;1250;63843;-62
2023/07/10 11:00:27;;;;;;;4.90;2.10;;;;;;;33.59;40.44;99313.48;109272;1250;60115;-62
2023/07/10 11:03:08;;;;;;;3.40;1.70;;;;;;;33.58;39.23;99316.85;109205;1250;58558;-62
2023/07/10 11:05:42;;;;;;;4.30;1.70;;;;;;;33.49;38.48;99316.92;109281;1250;73623;-63
2023/07/10 11:08:19;;;;;;;2.40;1.60;;;;;;;33.38;37.66;99318.39;109170;1250;58562;-64
2023/07/10 11:10:47;;;;;;;3.70;2.30;;;;;;;33.21;37.70;99316.08;109258;1250;62434;-63
2023/07/10 11:13:36;;;;;;;4.30;1.70;;;;;;;33.10;38.58;99316.97;109319;1253;58197;-62
2023/07/10 11:16:05;;;;;;;2.80;1.50;;;;;;;33.08;39.98;99320.55;109347;1250;58539;-63
2023/07/10 11:18:33;;;;;;;2.60;2.00;;;;;;;33.29;41.26;99323.85;109315;1250;65262;-64
2023/07/10 11:21:01;;;;;;;2.30;1.40;;;;;;;33.52;41.66;99325.46;109302;1250;58851;-62
2023/07/10 11:23:33;;;;;;;3.40;1.80;;;;;;;33.81;39.72;99328.49;109229;1250;62518;-64
2023/07/10 11:26:26;;;;;;;2.40;1.50;;;;;;;33.98;37.99;99322.05;109282;1250;58246;-64
2023/07/10 11:28:55;;;;;;;2.30;1.60;;;;;;;33.97;36.44;99324.13;109377;1250;58212;-62
2023/07/10 11:31:34;;;;;;;2.80;1.40;;;;;;;33.66;35.74;99324.78;109355;1250;65030;-65
2023/07/10 11:34:05;;;;;;;3.50;1.60;;;;;;;33.25;36.08;99326.95;109315;1253;58213;-63
2023/07/10 11:36:32;;;;;;;3.40;1.80;;;;;;;32.98;37.45;99328.27;109377;1250;63844;-62
2023/07/10 11:39:06;;;;;;;3.20;2.00;;;;;;;32.86;38.81;99321.31;109345;1250;58275;-61
2023/07/10 11:41:43;;;;;;;5.60;5.10;;;;;;;32.69;39.60;99323.52;109260;1250;58658;-63
2023/07/10 11:44:14;;;;;;;7.40;6.90;;;;;;;32.37;39.67;99323.81;109323;1250;65273;-62
2023/07/10 11:47:18;;;;;;;14.80;13.60;;;;;;;32.03;40.66;99327.19;109359;1250;65764;-62